Amagon, Arkansas
Current Conditions -  °F | °C
As of 10:56 PM on Wednesday 22 Oct 2014 (Local Time) from KM19 Reporting Station
Clear Clear  
Wind Chill: 45°   Ceiling: Unl
Heat Index: 48°   Visibility: 10mi
Dew Point: 45°   Wind: 7mph
Humidity: 90%   Direction: 20°NNE
Pressure: 30.22"   Gusts: NA
Location:  35.56°N, 91.11°W
Report Text: KM19 230356Z AUTO 02006KT 10SM CLR 09/07 A3022 RMK AO2 T00880072 SLP234
Loading
Personal Weather Stations






























Interactive Weather Map
Tropical Storm Tracking
New forecast layout! Learn more

10-Day Weather Forecast

Advertisements
Track Severe Weather on mobile